createdAt,value
2018-06-01T00:01:21.552Z,54.20
2018-06-01T00:03:51.296Z,52.43
2018-06-01T00:06:19.572Z,53.57
2018-06-01T00:08:51.091Z,54.03
2018-06-01T00:11:19.410Z,53.13
2018-06-01T00:13:47.642Z,55.20
2018-06-01T00:16:16.637Z,53.70
2018-06-01T00:18:44.878Z,52.90
2018-06-01T00:21:13.194Z,55.60
2018-06-01T00:23:42.334Z,55.80
2018-06-01T00:26:10.534Z,54.83
2018-06-01T00:28:40.282Z,55.40
2018-06-01T00:31:09.242Z,54.13
2018-06-01T00:33:37.429Z,53.77
2018-06-01T00:36:06.252Z,54.73
2018-06-01T00:38:34.577Z,53.67
2018-06-01T00:41:04.615Z,54.90
2018-06-01T00:43:32.816Z,54.30
2018-06-01T00:46:01.993Z,53.47
2018-06-01T00:48:30.226Z,53.30
2018-06-01T00:51:00.711Z,55.80
2018-06-01T00:53:29.813Z,54.57
2018-06-01T00:55:58.035Z,55.20
2018-06-01T00:58:26.277Z,53.87
2018-06-01T01:00:54.891Z,54.33
2018-06-01T01:03:43.840Z,52.67
2018-06-01T01:06:12.139Z,53.10
2018-06-01T01:08:41.117Z,53.30
2018-06-01T01:11:09.402Z,53.87
2018-06-01T01:13:37.705Z,53.93
2018-06-01T01:16:06.028Z,53.47
2018-06-01T01:18:34.235Z,53.70
2018-06-01T01:21:03.364Z,52.10
2018-06-01T01:23:31.938Z,52.30
2018-06-01T01:26:01.369Z,52.40
2018-06-01T01:28:30.516Z,53.40
2018-06-01T01:30:58.949Z,53.80
2018-06-01T01:33:27.178Z,54.27
2018-06-01T01:35:56.235Z,53.03
2018-06-01T01:38:24.509Z,52.33
2018-06-01T01:40:59.574Z,53.03
2018-06-01T01:43:29.530Z,53.30
2018-06-01T01:45:58.624Z,51.73
2018-06-01T01:48:26.887Z,53.00
2018-06-01T01:50:55.123Z,52.17
2018-06-01T01:53:24.567Z,51.43
2018-06-01T01:55:52.806Z,52.10
2018-06-01T01:58:21.905Z,52.10
2018-06-01T02:00:51.636Z,52.10
2018-06-01T02:03:20.830Z,52.23
2018-06-01T02:05:49.095Z,52.97
2018-06-01T02:08:18.389Z,52.20
2018-06-01T02:10:46.645Z,52.77
2018-06-01T02:13:14.841Z,53.67
2018-06-01T02:15:43.859Z,52.33
2018-06-01T02:18:12.089Z,51.83
2018-06-01T02:20:40.270Z,53.10
2018-06-01T02:23:08.512Z,50.80
2018-06-01T02:25:37.607Z,53.13
2018-06-01T02:28:05.846Z,52.93
2018-06-01T02:30:34.153Z,52.47
2018-06-01T02:33:03.038Z,52.57
2018-06-01T02:35:32.085Z,52.03
2018-06-01T02:38:00.827Z,52.53
2018-06-01T02:40:29.082Z,51.93
2018-06-01T02:42:58.081Z,52.67
2018-06-01T02:45:26.307Z,52.20
2018-06-01T02:47:55.459Z,51.67
2018-06-01T02:50:24.734Z,52.93
2018-06-01T02:52:54.500Z,52.13
2018-06-01T02:55:22.701Z,51.80
2018-06-01T02:57:50.940Z,52.97
2018-06-01T03:00:20.991Z,53.03
2018-06-01T03:02:49.222Z,51.90
2018-06-01T03:05:17.444Z,53.43
2018-06-01T03:07:46.462Z,51.93
2018-06-01T03:10:16.860Z,54.30
2018-06-01T03:12:45.088Z,52.70
2018-06-01T03:15:15.334Z,52.47
2018-06-01T03:17:43.636Z,53.13
2018-06-01T03:20:11.863Z,53.00
2018-06-01T03:22:40.061Z,51.93
2018-06-01T03:25:08.273Z,53.60
2018-06-01T03:27:37.568Z,54.20
2018-06-01T03:30:05.836Z,54.13
2018-06-01T03:32:35.849Z,51.87
2018-06-01T03:35:04.063Z,51.27
2018-06-01T03:37:32.266Z,51.10
2018-06-01T03:40:00.480Z,50.57
2018-06-01T03:42:29.675Z,50.10
2018-06-01T03:44:57.859Z,51.97
2018-06-01T03:47:26.093Z,51.40
2018-06-01T03:49:54.876Z,49.47
2018-06-01T03:52:23.818Z,49.43
2018-06-01T03:54:52.350Z,50.20
2018-06-01T03:57:21.740Z,51.07
2018-06-01T03:59:51.488Z,49.83
2018-06-01T04:02:20.286Z,49.67
2018-06-01T04:04:49.292Z,50.80
2018-06-01T04:07:17.834Z,49.43
2018-06-01T04:09:46.619Z,51.30
2018-06-01T04:12:14.841Z,50.07
2018-06-01T04:14:44.037Z,49.20
2018-06-01T04:17:13.875Z,49.17
2018-06-01T04:19:42.098Z,49.90
2018-06-01T04:22:10.301Z,51.07
2018-06-01T04:24:38.509Z,50.43
2018-06-01T04:27:08.475Z,49.27
2018-06-01T04:29:37.636Z,50.73
2018-06-01T04:32:06.648Z,49.47
2018-06-01T04:34:34.951Z,50.43
2018-06-01T04:37:03.162Z,50.30
2018-06-01T04:39:33.269Z,50.57
2018-06-01T04:42:01.500Z,49.83
2018-06-01T04:44:29.697Z,51.23
2018-06-01T04:46:57.962Z,49.93
2018-06-01T04:49:26.287Z,50.37
2018-06-01T04:51:56.195Z,50.90
2018-06-01T04:54:26.173Z,51.03
2018-06-01T04:56:54.367Z,50.63
2018-06-01T04:59:22.562Z,49.50
2018-06-01T05:01:52.972Z,50.40
2018-06-01T05:04:21.180Z,49.67
2018-06-01T05:06:52.075Z,51.27
2018-06-01T05:09:20.375Z,49.80
2018-06-01T05:11:49.603Z,50.20
2018-06-01T05:14:18.627Z,50.67
2018-06-01T05:16:46.875Z,50.77
2018-06-01T05:19:15.096Z,51.60
2018-06-01T05:21:44.655Z,51.03
2018-06-01T05:24:13.599Z,51.00
2018-06-01T05:26:41.824Z,50.33
2018-06-01T05:29:11.027Z,51.43
2018-06-01T05:31:39.244Z,51.27
2018-06-01T05:34:08.029Z,51.13
2018-06-01T05:36:36.220Z,50.80
2018-06-01T05:39:07.266Z,50.93
2018-06-01T05:41:35.790Z,51.70
2018-06-01T05:44:05.313Z,52.03
2018-06-01T05:46:34.451Z,51.33
2018-06-01T05:49:02.797Z,51.33
2018-06-01T05:51:31.019Z,51.97
2018-06-01T05:54:00.348Z,52.60
2018-06-01T05:56:29.946Z,51.70
2018-06-01T06:01:33.193Z,52.73
2018-06-01T06:04:01.484Z,48.60
2018-06-01T06:06:29.693Z,47.80
2018-06-01T06:08:58.669Z,50.47
2018-06-01T06:11:27.246Z,47.93
2018-06-01T06:13:55.496Z,48.67
2018-06-01T06:16:24.607Z,51.53
2018-06-01T06:18:52.834Z,50.63
2018-06-01T06:21:22.030Z,52.47
2018-06-01T06:23:51.131Z,51.30
2018-06-01T06:26:20.052Z,50.90
2018-06-01T06:28:48.272Z,52.77
2018-06-01T06:31:17.350Z,50.13
2018-06-01T06:33:47.367Z,50.60
2018-06-01T06:36:15.591Z,51.53
2018-06-01T06:38:43.926Z,51.83
2018-06-01T06:41:13.132Z,51.77
2018-06-01T06:43:43.138Z,51.97
2018-06-01T06:46:12.411Z,50.97
2018-06-01T06:48:41.403Z,50.53
2018-06-01T06:51:10.373Z,50.77
2018-06-01T06:53:39.569Z,50.27
2018-06-01T06:56:07.810Z,51.33
2018-06-01T06:58:36.271Z,50.10
2018-06-01T07:01:04.510Z,65.27
2018-06-01T07:03:32.745Z,51.87
2018-06-01T07:06:01.926Z,50.27
2018-06-01T07:08:30.117Z,50.53
2018-06-01T07:10:58.410Z,51.27
2018-06-01T07:13:27.299Z,49.03
2018-06-01T07:15:56.271Z,47.77
2018-06-01T07:18:24.506Z,47.30
2018-06-01T07:20:52.731Z,48.20
2018-06-01T07:23:21.810Z,48.07
2018-06-01T07:25:50.025Z,50.13
2018-06-01T07:28:18.256Z,49.53
2018-06-01T07:30:46.475Z,49.13
2018-06-01T07:33:14.765Z,49.93
2018-06-01T07:35:43.001Z,50.23
2018-06-01T07:38:12.942Z,50.30
2018-06-01T07:40:41.179Z,51.57
2018-06-01T07:43:09.430Z,51.60
2018-06-01T07:45:38.545Z,50.93
2018-06-01T07:48:06.763Z,51.83
2018-06-01T07:50:35.823Z,50.73
2018-06-01T07:53:05.074Z,50.10
2018-06-01T07:55:33.346Z,48.63
2018-06-01T07:58:01.618Z,48.63
2018-06-01T08:00:29.828Z,50.60
2018-06-01T08:02:59.707Z,49.67
2018-06-01T08:05:27.972Z,48.80
2018-06-01T08:07:56.189Z,49.50
2018-06-01T08:10:24.463Z,49.23
2018-06-01T08:12:52.739Z,50.30
2018-06-01T08:15:21.711Z,51.63
2018-06-01T08:17:51.005Z,51.53
2018-06-01T08:20:19.282Z,53.73
2018-06-01T08:22:47.486Z,52.20
2018-06-01T08:25:15.872Z,51.37
2018-06-01T08:27:44.267Z,49.80
2018-06-01T08:30:13.511Z,50.00
2018-06-01T08:32:41.756Z,51.67
2018-06-01T08:35:09.970Z,50.93
2018-06-01T08:37:38.178Z,52.70
2018-06-01T08:40:06.386Z,51.67
2018-06-01T08:42:35.375Z,51.50
2018-06-01T08:45:03.816Z,52.17
2018-06-01T08:47:32.674Z,53.20
2018-06-01T08:50:00.940Z,53.90
2018-06-01T08:52:29.133Z,52.17
2018-06-01T08:54:57.339Z,53.13
2018-06-01T08:57:25.579Z,53.13
2018-06-01T08:59:53.804Z,53.63
2018-06-01T09:02:22.089Z,54.57
2018-06-01T09:04:50.320Z,53.60
2018-06-01T09:07:18.529Z,52.50
2018-06-01T09:09:46.759Z,51.53
2018-06-01T09:12:14.987Z,51.17
2018-06-01T09:14:43.186Z,51.00
2018-06-01T09:17:11.396Z,51.00
2018-06-01T09:19:39.633Z,50.87
2018-06-01T09:22:09.678Z,52.17
2018-06-01T09:24:37.841Z,55.23
2018-06-01T09:27:07.729Z,54.13
2018-06-01T09:29:36.066Z,52.17
2018-06-01T09:32:04.454Z,50.97
2018-06-01T09:34:32.732Z,52.63
2018-06-01T09:37:00.940Z,52.30
2018-06-01T09:39:30.123Z,51.77
2018-06-01T09:41:58.406Z,51.10
2018-06-01T09:44:26.609Z,50.70
2018-06-01T09:46:54.805Z,51.60
2018-06-01T09:49:23.371Z,52.03
2018-06-01T09:51:51.588Z,53.27
2018-06-01T09:54:20.478Z,51.23
2018-06-01T09:56:48.693Z,49.20
2018-06-01T09:59:19.472Z,49.30
2018-06-01T10:01:48.455Z,49.67
2018-06-01T10:04:16.655Z,49.67
2018-06-01T10:06:45.813Z,50.27
2018-06-01T10:09:17.148Z,49.63
2018-06-01T10:11:45.400Z,50.37
2018-06-01T10:14:13.668Z,49.57
2018-06-01T10:16:41.910Z,50.37
2018-06-01T10:19:10.107Z,49.90
2018-06-01T10:21:39.080Z,50.40
2018-06-01T10:24:07.436Z,48.70
2018-06-01T10:26:36.032Z,62.13
2018-06-01T10:29:04.594Z,75.53
2018-06-01T10:31:33.663Z,52.53
2018-06-01T10:34:02.425Z,51.47
2018-06-01T10:36:30.633Z,49.33
2018-06-01T10:38:58.841Z,48.80
2018-06-01T10:41:27.054Z,49.17
2018-06-01T10:43:56.093Z,48.30
2018-06-01T10:46:25.086Z,47.33
2018-06-01T10:48:54.070Z,46.30
2018-06-01T10:51:22.256Z,47.27
2018-06-01T10:53:50.515Z,46.83
2018-06-01T10:56:18.759Z,46.57
2018-06-01T10:58:46.962Z,46.43
2018-06-01T11:01:15.197Z,50.30
2018-06-01T11:03:44.332Z,46.30
2018-06-01T11:06:13.639Z,46.23
2018-06-01T11:08:41.907Z,46.70
2018-06-01T11:11:10.137Z,46.57
2018-06-01T11:13:38.412Z,45.47
2018-06-01T11:16:06.635Z,46.10
2018-06-01T11:18:35.227Z,46.27
2018-06-01T11:21:03.470Z,46.07
2018-06-01T11:23:32.852Z,46.63
2018-06-01T11:26:01.175Z,45.90
2018-06-01T11:28:30.353Z,45.87
2018-06-01T11:30:58.603Z,45.50
2018-06-01T11:33:27.593Z,45.37
2018-06-01T11:35:55.787Z,45.03
2018-06-01T11:38:24.949Z,45.73
2018-06-01T11:40:53.153Z,45.70
2018-06-01T11:43:21.953Z,45.53
2018-06-01T11:45:50.161Z,46.10
2018-06-01T11:48:18.486Z,46.17
2018-06-01T11:50:46.705Z,45.67
2018-06-01T11:53:15.881Z,45.70
2018-06-01T11:55:44.945Z,45.73
2018-06-01T11:58:13.760Z,45.57
2018-06-01T12:00:42.085Z,44.50
2018-06-01T12:03:11.132Z,45.23
2018-06-01T12:05:39.357Z,44.97
2018-06-01T12:08:08.642Z,45.17
2018-06-01T12:10:36.834Z,45.50
2018-06-01T12:13:06.264Z,45.37
2018-06-01T12:15:35.691Z,45.87
2018-06-01T12:18:03.913Z,45.17
2018-06-01T12:20:32.519Z,45.03
2018-06-01T12:23:01.469Z,44.83
2018-06-01T12:25:29.821Z,45.33
2018-06-01T12:27:58.966Z,45.17
2018-06-01T12:30:27.227Z,45.53
2018-06-01T12:32:55.414Z,45.30
2018-06-01T12:35:23.625Z,45.80
2018-06-01T12:37:52.026Z,45.27
2018-06-01T12:40:20.309Z,45.10
2018-06-01T12:42:48.528Z,45.17
2018-06-01T12:45:16.879Z,45.67
2018-06-01T12:47:45.083Z,45.40
2018-06-01T12:50:14.189Z,45.20
2018-06-01T12:52:43.176Z,45.47
2018-06-01T12:55:12.218Z,45.60
2018-06-01T12:57:40.480Z,44.93
2018-06-01T13:00:09.820Z,44.67
2018-06-01T13:02:38.013Z,45.43
2018-06-01T13:05:07.267Z,45.33
2018-06-01T13:07:35.645Z,45.53
2018-06-01T13:10:05.177Z,44.93
2018-06-01T13:12:33.409Z,44.97
2018-06-01T13:15:01.631Z,45.20
2018-06-01T13:17:31.462Z,45.27
2018-06-01T13:19:59.742Z,45.17
2018-06-01T13:22:30.013Z,45.17
2018-06-01T13:24:59.809Z,45.23
2018-06-01T13:27:28.031Z,45.23
2018-06-01T13:29:58.974Z,44.77
2018-06-01T13:32:28.035Z,44.93
2018-06-01T13:34:57.845Z,45.57
2018-06-01T13:37:29.482Z,44.30
2018-06-01T13:39:59.146Z,44.23
2018-06-01T13:42:28.624Z,45.13
2018-06-01T13:44:58.798Z,45.03
2018-06-01T13:47:27.049Z,45.33
2018-06-01T13:49:56.090Z,45.33
2018-06-01T13:52:25.087Z,44.83
2018-06-01T13:54:54.536Z,45.53
2018-06-01T13:57:23.814Z,45.43
2018-06-01T13:59:52.089Z,45.23
2018-06-01T14:02:21.597Z,45.50
2018-06-01T14:04:52.356Z,45.53
2018-06-01T14:07:23.024Z,45.77
2018-06-01T14:09:52.207Z,45.77
2018-06-01T14:12:21.394Z,46.05
2018-06-01T14:14:51.740Z,46.08
2018-06-01T14:17:22.557Z,46.08
2018-06-01T14:19:53.531Z,46.53
2018-06-01T14:22:21.835Z,47.50
2018-06-01T14:24:50.785Z,46.33
2018-06-01T14:27:23.764Z,46.70
2018-06-01T14:29:53.324Z,46.00
2018-06-01T14:32:22.731Z,46.17
2018-06-01T14:34:51.483Z,46.30
2018-06-01T14:37:20.764Z,46.07
2018-06-01T14:39:52.483Z,45.70
2018-06-01T14:42:21.853Z,45.40
2018-06-01T14:44:50.492Z,45.72
2018-06-01T14:47:19.590Z,46.17
2018-06-01T14:49:49.318Z,46.40
2018-06-01T14:52:18.892Z,46.75
2018-06-01T14:54:49.223Z,46.85
2018-06-01T14:57:18.234Z,46.40
2018-06-01T14:59:48.597Z,46.75
2018-06-01T15:02:21.041Z,49.67
2018-06-01T15:04:50.261Z,47.38
2018-06-01T15:07:19.236Z,46.60
2018-06-01T15:09:48.631Z,47.33
2018-06-01T15:12:18.041Z,47.17
2018-06-01T15:14:47.443Z,47.85
2018-06-01T15:17:16.565Z,46.97
2018-06-01T15:19:44.793Z,48.13
2018-06-01T15:22:13.559Z,47.30
2018-06-01T15:24:41.877Z,46.92
2018-06-01T15:27:11.034Z,46.58
2018-06-01T15:29:39.298Z,46.80
2018-06-01T15:32:07.537Z,47.13
2018-06-01T15:34:36.568Z,47.50
2018-06-01T15:37:04.829Z,47.30
2018-06-01T15:39:33.744Z,46.85
2018-06-01T15:42:03.172Z,47.08
2018-06-01T15:44:33.394Z,47.53
2018-06-01T15:47:03.679Z,47.15
2018-06-01T15:49:31.959Z,47.25
2018-06-01T15:52:01.186Z,47.75
2018-06-01T15:54:29.565Z,46.80
2018-06-01T15:57:00.003Z,47.17
2018-06-01T15:59:29.293Z,47.75
2018-06-01T16:01:57.543Z,46.80
2018-06-01T16:04:25.771Z,47.28
2018-06-01T16:06:54.784Z,46.28
2018-06-01T16:09:23.014Z,47.13
2018-06-01T16:11:51.232Z,46.40
2018-06-01T16:14:19.447Z,46.22
2018-06-01T16:16:47.701Z,46.92
2018-06-01T16:19:15.935Z,46.67
2018-06-01T16:21:47.717Z,46.58
2018-06-01T16:24:16.170Z,46.90
2018-06-01T16:26:45.175Z,47.15
2018-06-01T16:29:14.819Z,46.83
2018-06-01T16:31:43.956Z,47.55
2018-06-01T16:34:12.184Z,46.70
2018-06-01T16:36:41.747Z,47.15
2018-06-01T16:39:10.003Z,47.33
2018-06-01T16:41:39.848Z,47.05
2018-06-01T16:44:08.097Z,47.40
2018-06-01T16:46:37.072Z,46.93
2018-06-01T16:49:05.330Z,47.10
2018-06-01T16:51:33.550Z,46.87
2018-06-01T16:54:01.793Z,46.27
2018-06-01T16:56:29.980Z,47.27
2018-06-01T16:58:59.071Z,46.27
2018-06-01T17:01:28.213Z,46.83
2018-06-01T17:03:56.438Z,45.83
2018-06-01T17:06:24.620Z,46.60
2018-06-01T17:08:52.919Z,46.47
2018-06-01T17:11:23.267Z,46.53
2018-06-01T17:13:51.501Z,47.30
2018-06-01T17:16:19.725Z,46.87
2018-06-01T17:18:47.915Z,46.63
2018-06-01T17:21:16.990Z,46.87
2018-06-01T17:23:45.203Z,46.47
2018-06-01T17:26:13.416Z,45.83
2018-06-01T17:28:41.661Z,46.77
2018-06-01T17:31:09.857Z,46.37
2018-06-01T17:33:38.090Z,46.80
2018-06-01T17:36:07.121Z,45.70
2018-06-01T17:38:35.361Z,45.77
2018-06-01T17:41:05.153Z,45.60
2018-06-01T17:43:33.489Z,45.80
2018-06-01T17:46:01.723Z,45.17
2018-06-01T17:48:32.093Z,46.30
2018-06-01T17:51:01.321Z,46.87
2018-06-01T17:53:29.628Z,46.70
2018-06-01T17:55:57.845Z,45.77
2018-06-01T17:58:26.197Z,47.20
2018-06-01T18:00:54.445Z,47.30
2018-06-01T18:03:22.873Z,46.23
2018-06-01T18:05:51.102Z,46.07
2018-06-01T18:08:19.754Z,47.20
2018-06-01T18:10:47.992Z,45.97
2018-06-01T18:13:16.197Z,45.60
2018-06-01T18:15:44.467Z,46.87
2018-06-01T18:18:13.561Z,46.20
2018-06-01T18:20:41.800Z,46.60
2018-06-01T18:23:10.014Z,46.50
2018-06-01T18:25:38.226Z,45.93
2018-06-01T18:28:06.560Z,45.93
2018-06-01T18:30:35.549Z,47.47
2018-06-01T18:33:03.960Z,46.40
2018-06-01T18:35:32.411Z,46.23
2018-06-01T18:38:02.501Z,46.87
2018-06-01T18:40:30.751Z,46.13
2018-06-01T18:42:59.316Z,45.30
2018-06-01T18:45:28.465Z,45.10
2018-06-01T18:47:56.657Z,45.80
2018-06-01T18:50:24.937Z,45.50
2018-06-01T18:52:53.937Z,45.93
2018-06-01T18:55:22.172Z,46.67
2018-06-01T18:57:51.345Z,45.73
2018-06-01T19:00:20.411Z,46.77
2018-06-01T19:02:49.394Z,45.77
2018-06-01T19:05:17.630Z,46.33
2018-06-01T19:07:46.830Z,48.53
2018-06-01T19:10:15.966Z,45.80
2018-06-01T19:12:44.200Z,45.83
2018-06-01T19:15:14.354Z,45.90
2018-06-01T19:17:43.688Z,46.00
2018-06-01T19:20:14.677Z,46.30
2018-06-01T19:22:43.876Z,45.67
2018-06-01T19:25:12.950Z,46.33
2018-06-01T19:27:41.183Z,45.27
2018-06-01T19:30:10.790Z,46.57
2018-06-01T19:32:39.644Z,46.03
2018-06-01T19:35:08.625Z,44.97
2018-06-01T19:37:36.867Z,45.60
2018-06-01T19:40:05.905Z,44.57
2018-06-01T19:42:34.927Z,45.10
2018-06-01T19:45:03.516Z,44.73
2018-06-01T19:47:31.987Z,44.23
2018-06-01T19:50:00.399Z,45.43
2018-06-01T19:52:28.655Z,44.80
2018-06-01T19:54:58.413Z,44.13
2018-06-01T19:57:27.256Z,44.23
2018-06-01T19:59:56.377Z,44.10
2018-06-01T20:02:26.477Z,45.63
2018-06-01T20:04:54.882Z,44.63
2018-06-01T20:07:23.409Z,44.83
2018-06-01T20:09:51.724Z,45.33
2018-06-01T20:12:19.986Z,45.50
2018-06-01T20:14:48.405Z,44.67
2018-06-01T20:17:18.590Z,43.97
2018-06-01T20:19:46.818Z,45.27
2018-06-01T20:22:16.256Z,46.77
2018-06-01T20:24:45.142Z,44.67
2018-06-01T20:27:13.665Z,45.20
2018-06-01T20:29:41.867Z,44.27
2018-06-01T20:32:10.141Z,45.70
2018-06-01T20:34:39.128Z,45.47
2018-06-01T20:37:07.379Z,44.83
2018-06-01T20:39:36.819Z,44.73
2018-06-01T20:42:05.207Z,43.93
2018-06-01T20:44:34.280Z,44.07
2018-06-01T20:47:02.523Z,44.43
2018-06-01T20:49:31.846Z,44.27
2018-06-01T20:52:00.153Z,44.40
2018-06-01T20:54:31.870Z,44.80
2018-06-01T20:57:00.109Z,45.77
2018-06-01T20:59:28.298Z,45.87
2018-06-01T21:01:57.525Z,45.10
2018-06-01T21:04:25.734Z,44.77
2018-06-01T21:06:55.475Z,44.87
2018-06-01T21:09:25.519Z,44.53
2018-06-01T21:11:57.244Z,44.20
2018-06-01T21:14:26.282Z,44.40
2018-06-01T21:16:54.826Z,44.40
2018-06-01T21:19:23.786Z,44.67
2018-06-01T21:21:52.291Z,44.77
2018-06-01T21:24:20.517Z,45.10
2018-06-01T21:26:48.847Z,45.10
2018-06-01T21:29:17.239Z,45.33
2018-06-01T21:31:45.447Z,44.40
2018-06-01T21:34:13.753Z,44.97
2018-06-01T21:36:43.804Z,44.70
2018-06-01T21:39:12.013Z,44.43
2018-06-01T21:41:40.231Z,45.00
2018-06-01T21:44:08.474Z,44.20
2018-06-01T21:46:38.587Z,43.90
2018-06-01T21:49:06.770Z,44.77
2018-06-01T21:51:35.847Z,43.77
2018-06-01T21:54:05.102Z,44.17
2018-06-01T21:56:33.404Z,43.90
2018-06-01T21:59:01.702Z,44.03
2018-06-01T22:01:29.966Z,44.07
2018-06-01T22:03:59.212Z,43.77
2018-06-01T22:06:28.978Z,43.70
2018-06-01T22:08:57.217Z,43.30
2018-06-01T22:11:28.224Z,43.73
2018-06-01T22:13:58.182Z,43.90
2018-06-01T22:16:27.096Z,43.23
2018-06-01T22:18:55.306Z,43.87
2018-06-01T22:21:24.389Z,43.87
2018-06-01T22:23:53.728Z,43.97
2018-06-01T22:26:22.150Z,43.67
2018-06-01T22:28:50.447Z,43.97
2018-06-01T22:31:18.754Z,43.80
2018-06-01T22:33:47.734Z,43.13
2018-06-01T22:36:17.164Z,43.90
2018-06-01T22:38:45.409Z,43.67
2018-06-01T22:41:13.615Z,44.97
2018-06-01T22:43:41.963Z,44.53
2018-06-01T22:46:10.293Z,43.63
2018-06-01T22:48:38.982Z,44.13
2018-06-01T22:51:07.186Z,43.97
2018-06-01T22:53:35.407Z,44.57
2018-06-01T22:56:04.031Z,44.07
2018-06-01T22:58:32.403Z,43.67
2018-06-01T23:01:00.648Z,59.40
2018-06-01T23:03:29.606Z,42.60
2018-06-01T23:05:59.961Z,43.57
2018-06-01T23:08:28.233Z,43.60
2018-06-01T23:10:59.713Z,43.30
2018-06-01T23:13:29.296Z,43.17
2018-06-01T23:15:57.534Z,42.50
2018-06-01T23:18:27.291Z,42.87
2018-06-01T23:20:57.269Z,42.77
2018-06-01T23:23:26.264Z,43.77
2018-06-01T23:25:55.495Z,43.07
2018-06-01T23:28:24.935Z,43.27
2018-06-01T23:30:53.417Z,43.40
2018-06-01T23:33:21.747Z,42.97
2018-06-01T23:35:50.897Z,43.73
2018-06-01T23:38:20.507Z,43.33
2018-06-01T23:40:49.742Z,43.57
2018-06-01T23:43:17.972Z,43.37
2018-06-01T23:45:46.182Z,43.13
2018-06-01T23:48:14.374Z,43.13
2018-06-01T23:50:43.458Z,42.67
2018-06-01T23:53:11.658Z,43.33
2018-06-01T23:55:39.878Z,43.60
2018-06-01T23:58:08.078Z,42.70
